Time;durP1;ratioP1;P1;durP2;ratioP2;P2;SDS_P1;SDS_P2;PMS_P1;PMS_P2;Temp;Humidity;BMP_temperature;BMP_pressure;BME280_temperature;BME280_humidity;BME280_pressure;Samples;Min_cycle;Max_cycle;Signal;HPM_P1;HPM_P2
2022/12/31 00:01:21;;;;;;;31.38;4.40;;;;;;;;;;5007250;28;20149;-68
2022/12/31 00:03:48;;;;;;;36.38;3.70;;;;;;;;;;5021451;28;20441;-68
2022/12/31 00:06:17;;;;;;;33.17;4.05;;;;;;;;;;5032929;28;20472;-68
2022/12/31 00:08:46;;;;;;;29.40;3.85;;;;;;;;;;5026238;28;20068;-67
2022/12/31 00:11:13;;;;;;;35.45;4.10;;;;;;;;;;5017014;28;20053;-69
2022/12/31 00:13:41;;;;;;;34.67;3.97;;;;;;;;;;5028085;28;20050;-68
2022/12/31 00:16:09;;;;;;;30.70;3.90;;;;;;;;;;5028806;28;20041;-68
2022/12/31 00:18:37;;;;;;;25.50;3.13;;;;;;;;;;5024122;28;20058;-68
2022/12/31 00:21:08;;;;;;;27.98;3.63;;;;;;;;;;5021094;28;20053;-68
2022/12/31 00:23:35;;;;;;;35.15;3.63;;;;;;;;;;5026894;28;20146;-67
2022/12/31 00:26:04;;;;;;;34.97;4.22;;;;;;;;;;5024711;28;20501;-68
2022/12/31 00:28:32;;;;;;;31.25;3.63;;;;;;;;;;5025939;28;20049;-68
2022/12/31 00:31:04;;;;;;;35.50;4.70;;;;;;;;;;5025012;28;20057;-68
2022/12/31 00:33:31;;;;;;;30.33;4.00;;;;;;;;;;5025668;28;20057;-67
2022/12/31 00:36:04;;;;;;;40.88;3.72;;;;;;;;;;5025930;28;20053;-67
2022/12/31 00:38:31;;;;;;;48.97;5.60;;;;;;;;;;5023993;28;20483;-69
2022/12/31 00:40:58;;;;;;;34.97;4.70;;;;;;;;;;5023650;28;20292;-69
2022/12/31 00:43:27;;;;;;;34.70;4.07;;;;;;;;;;5026388;28;20057;-68
2022/12/31 00:45:54;;;;;;;48.85;4.20;;;;;;;;;;5024204;28;20056;-68
2022/12/31 00:48:22;;;;;;;34.65;3.63;;;;;;;;;;5022553;28;20057;-67
2022/12/31 00:50:49;;;;;;;37.47;3.80;;;;;;;;;;5024576;28;20065;-67
2022/12/31 00:53:16;;;;;;;34.47;3.38;;;;;;;;;;5026431;28;20045;-67
2022/12/31 00:55:43;;;;;;;38.05;4.57;;;;;;;;;;5025762;28;20056;-68
2022/12/31 00:58:11;;;;;;;40.95;5.43;;;;;;;;;;5021623;28;20050;-67
2022/12/31 01:00:39;;;;;;;38.25;4.40;;;;;;;;;;5009205;28;20060;-68
2022/12/31 01:03:07;;;;;;;35.30;4.20;;;;;;;;;;5016725;28;20129;-67
2022/12/31 01:05:35;;;;;;;35.10;4.90;;;;;;;;;;5024124;28;20499;-68
2022/12/31 01:08:03;;;;;;;45.70;4.80;;;;;;;;;;5023421;28;20499;-68
2022/12/31 01:13:15;;;;;;;43.90;5.03;;;;;;;;;;5021009;28;20045;-69
2022/12/31 01:15:44;;;;;;;43.50;4.72;;;;;;;;;;5022215;28;20055;-68
2022/12/31 01:18:11;;;;;;;34.50;4.07;;;;;;;;;;5023825;28;20052;-68
2022/12/31 01:20:39;;;;;;;43.50;4.90;;;;;;;;;;5025142;28;20053;-69
2022/12/31 01:23:07;;;;;;;45.15;5.40;;;;;;;;;;5025146;28;20068;-67
2022/12/31 01:25:35;;;;;;;31.05;4.40;;;;;;;;;;5022258;28;20068;-68
2022/12/31 01:28:03;;;;;;;38.83;4.50;;;;;;;;;;5005927;28;20099;-68
2022/12/31 01:30:30;;;;;;;35.13;5.10;;;;;;;;;;5017965;28;20161;-67
2022/12/31 01:32:59;;;;;;;39.85;5.30;;;;;;;;;;5022032;28;20061;-68
2022/12/31 01:35:26;;;;;;;34.58;4.15;;;;;;;;;;5025397;28;20046;-68
2022/12/31 01:37:53;;;;;;;36.78;4.65;;;;;;;;;;5004578;28;20064;-67
2022/12/31 01:40:20;;;;;;;41.67;4.25;;;;;;;;;;5020911;28;20041;-67
2022/12/31 01:42:54;;;;;;;39.25;4.22;;;;;;;;;;5020350;28;20225;-67
2022/12/31 01:45:21;;;;;;;44.67;4.07;;;;;;;;;;5023550;28;20051;-68
2022/12/31 01:47:51;;;;;;;37.35;3.97;;;;;;;;;;5023668;28;20050;-67
2022/12/31 01:50:21;;;;;;;42.45;5.68;;;;;;;;;;5005850;28;20508;-68
2022/12/31 01:52:50;;;;;;;41.38;4.50;;;;;;;;;;5023447;28;20050;-67
2022/12/31 01:55:19;;;;;;;41.63;4.38;;;;;;;;;;5017608;28;20061;-68
2022/12/31 01:57:47;;;;;;;34.67;4.38;;;;;;;;;;5023579;28;20046;-67
2022/12/31 02:00:15;;;;;;;33.72;3.58;;;;;;;;;;5005856;28;20049;-67
2022/12/31 02:02:42;;;;;;;31.40;3.67;;;;;;;;;;5023105;28;20318;-69
2022/12/31 02:05:13;;;;;;;38.40;3.65;;;;;;;;;;5024369;28;20042;-67
2022/12/31 02:07:42;;;;;;;41.28;4.00;;;;;;;;;;5023112;28;20562;-68
2022/12/31 02:10:10;;;;;;;28.27;3.40;;;;;;;;;;5018978;28;20056;-68
2022/12/31 02:12:37;;;;;;;30.92;4.05;;;;;;;;;;5025025;28;20053;-68
2022/12/31 02:15:04;;;;;;;26.95;3.60;;;;;;;;;;5022499;28;20041;-68
2022/12/31 02:17:34;;;;;;;34.80;3.65;;;;;;;;;;5023509;28;20056;-67
2022/12/31 02:21:38;;;;;;;33.08;3.92;;;;;;;;;;5119203;27;20132;-65
2022/12/31 02:24:17;;;;;;;32.55;3.72;;;;;;;;;;5098735;28;20058;-65
2022/12/31 02:26:54;;;;;;;30.92;3.78;;;;;;;;;;5099569;28;20059;-65
2022/12/31 02:29:36;;;;;;;32.08;3.60;;;;;;;;;;5101980;28;20064;-65
2022/12/31 02:32:05;;;;;;;31.33;4.00;;;;;;;;;;5076089;28;20048;-64
2022/12/31 02:34:34;;;;;;;29.13;3.53;;;;;;;;;;5081600;28;20053;-65
2022/12/31 02:37:04;;;;;;;29.02;2.85;;;;;;;;;;5083797;28;20056;-65
2022/12/31 02:39:32;;;;;;;32.85;3.88;;;;;;;;;;5091605;28;20526;-67
2022/12/31 02:42:00;;;;;;;24.65;2.50;;;;;;;;;;5097398;28;20044;-68
2022/12/31 02:44:28;;;;;;;33.05;3.17;;;;;;;;;;5097005;28;20056;-67
2022/12/31 02:47:00;;;;;;;28.98;3.17;;;;;;;;;;5106385;28;20802;-68
2022/12/31 02:49:32;;;;;;;29.25;3.65;;;;;;;;;;5100279;28;20120;-68
2022/12/31 02:52:01;;;;;;;27.92;2.80;;;;;;;;;;5079693;28;20059;-68
2022/12/31 02:54:32;;;;;;;23.50;3.67;;;;;;;;;;5101733;28;20056;-67
2022/12/31 02:57:05;;;;;;;26.35;2.50;;;;;;;;;;5098398;28;20055;-68
2022/12/31 03:02:23;;;;;;;24.70;2.45;;;;;;;;;;5098070;28;20410;-68
2022/12/31 03:04:53;;;;;;;31.38;3.60;;;;;;;;;;5102145;28;20044;-68
2022/12/31 03:07:22;;;;;;;20.88;2.92;;;;;;;;;;5104820;28;20490;-68
2022/12/31 03:09:49;;;;;;;28.08;3.35;;;;;;;;;;5090293;28;20078;-68
2022/12/31 03:15:05;;;;;;;21.58;2.58;;;;;;;;;;5100375;28;20058;-68
2022/12/31 03:17:32;;;;;;;30.75;3.03;;;;;;;;;;5095271;28;20056;-68
2022/12/31 03:22:48;;;;;;;25.55;2.63;;;;;;;;;;5078266;28;20039;-67
2022/12/31 03:25:34;;;;;;;34.08;3.15;;;;;;;;;;5100006;28;20047;-67
2022/12/31 03:28:02;;;;;;;18.02;2.47;;;;;;;;;;5095567;28;20059;-67
2022/12/31 03:30:30;;;;;;;17.33;2.40;;;;;;;;;;5089466;28;20706;-67
2022/12/31 03:32:58;;;;;;;20.15;2.45;;;;;;;;;;5078041;28;20076;-68
2022/12/31 03:35:27;;;;;;;18.48;2.53;;;;;;;;;;5089676;28;20063;-69
2022/12/31 03:37:55;;;;;;;26.20;2.75;;;;;;;;;;5058726;28;20063;-68
2022/12/31 03:40:23;;;;;;;21.05;3.17;;;;;;;;;;5058482;28;20055;-68
2022/12/31 03:42:50;;;;;;;22.00;3.13;;;;;;;;;;5083750;28;20482;-68
2022/12/31 03:45:17;;;;;;;17.58;2.30;;;;;;;;;;5078312;28;20048;-68
2022/12/31 03:47:45;;;;;;;24.98;2.63;;;;;;;;;;5077416;28;20729;-68
2022/12/31 03:50:13;;;;;;;20.88;2.65;;;;;;;;;;5063966;28;20055;-67
2022/12/31 03:52:41;;;;;;;16.83;2.58;;;;;;;;;;5080660;28;20848;-68
2022/12/31 03:55:09;;;;;;;21.38;2.83;;;;;;;;;;5084275;28;20051;-68
2022/12/31 03:57:37;;;;;;;11.00;1.88;;;;;;;;;;5079821;28;20631;-68
2022/12/31 04:00:04;;;;;;;24.15;2.60;;;;;;;;;;5079527;28;20048;-68
2022/12/31 04:02:32;;;;;;;18.23;2.72;;;;;;;;;;5086884;28;20048;-67
2022/12/31 04:04:59;;;;;;;30.45;2.65;;;;;;;;;;5079406;28;20048;-67
2022/12/31 04:07:26;;;;;;;15.00;2.55;;;;;;;;;;5064233;28;20056;-67
2022/12/31 04:09:55;;;;;;;16.00;2.47;;;;;;;;;;5086571;28;20044;-68
2022/12/31 04:12:22;;;;;;;24.85;2.58;;;;;;;;;;5063291;28;20216;-67
2022/12/31 04:14:49;;;;;;;20.10;2.25;;;;;;;;;;5078673;28;20053;-68
2022/12/31 04:17:16;;;;;;;15.10;1.73;;;;;;;;;;5076099;28;20674;-68
2022/12/31 04:19:44;;;;;;;16.63;2.17;;;;;;;;;;5052069;28;20511;-68
2022/12/31 04:22:11;;;;;;;18.63;2.28;;;;;;;;;;5082972;28;20151;-67
2022/12/31 04:24:38;;;;;;;23.25;2.15;;;;;;;;;;5082676;28;20470;-67
2022/12/31 04:27:07;;;;;;;15.95;1.92;;;;;;;;;;5079315;28;20779;-68
2022/12/31 04:29:34;;;;;;;22.17;2.88;;;;;;;;;;5081694;28;20569;-68
2022/12/31 04:32:01;;;;;;;13.10;2.00;;;;;;;;;;5083065;28;20051;-67
2022/12/31 04:34:28;;;;;;;17.48;2.50;;;;;;;;;;5084961;28;20091;-67
2022/12/31 04:36:56;;;;;;;24.27;3.03;;;;;;;;;;5085750;28;20333;-68
2022/12/31 04:39:23;;;;;;;22.65;2.95;;;;;;;;;;5086371;28;20044;-68
2022/12/31 04:41:50;;;;;;;25.73;3.13;;;;;;;;;;5081946;28;20056;-68
2022/12/31 04:44:19;;;;;;;23.77;4.05;;;;;;;;;;5079179;28;20067;-69
2022/12/31 04:46:46;;;;;;;23.92;2.40;;;;;;;;;;5063168;28;20109;-68
2022/12/31 04:49:14;;;;;;;15.00;2.15;;;;;;;;;;5080696;28;20041;-69
2022/12/31 04:51:41;;;;;;;17.80;2.17;;;;;;;;;;5079503;28;20056;-68
2022/12/31 04:54:08;;;;;;;20.65;2.70;;;;;;;;;;5077410;28;20068;-68
2022/12/31 04:56:35;;;;;;;16.42;1.90;;;;;;;;;;5081973;28;20059;-70
2022/12/31 04:59:03;;;;;;;28.38;3.20;;;;;;;;;;5079738;28;20132;-69
2022/12/31 05:01:32;;;;;;;21.30;2.90;;;;;;;;;;5060711;28;20055;-69
2022/12/31 05:03:59;;;;;;;20.48;2.15;;;;;;;;;;5084302;28;20056;-68
2022/12/31 05:06:26;;;;;;;21.23;2.60;;;;;;;;;;5080882;28;20048;-68
2022/12/31 05:08:54;;;;;;;18.60;2.28;;;;;;;;;;5080571;28;20040;-68
2022/12/31 05:11:22;;;;;;;20.40;3.38;;;;;;;;;;5083517;28;20093;-68
2022/12/31 05:13:49;;;;;;;16.58;2.70;;;;;;;;;;5084137;28;20610;-69
2022/12/31 05:16:16;;;;;;;22.10;2.40;;;;;;;;;;5082438;28;20166;-68
2022/12/31 05:18:45;;;;;;;19.85;2.10;;;;;;;;;;5081729;28;20398;-68
2022/12/31 05:21:16;;;;;;;23.63;2.50;;;;;;;;;;5081435;28;20145;-69
2022/12/31 05:23:43;;;;;;;25.25;3.42;;;;;;;;;;5084426;28;20055;-68
2022/12/31 05:26:10;;;;;;;21.50;2.90;;;;;;;;;;5079319;28;20465;-68
2022/12/31 05:28:37;;;;;;;25.15;4.95;;;;;;;;;;5080055;28;20485;-68
2022/12/31 05:31:05;;;;;;;35.03;5.65;;;;;;;;;;5078699;28;20048;-67
2022/12/31 05:33:32;;;;;;;33.05;5.97;;;;;;;;;;5081304;28;20045;-67
2022/12/31 05:36:00;;;;;;;31.63;6.18;;;;;;;;;;5080046;28;20481;-68
2022/12/31 05:38:28;;;;;;;36.67;6.82;;;;;;;;;;5082229;28;20056;-67
2022/12/31 05:41:02;;;;;;;32.05;7.30;;;;;;;;;;5082127;28;20051;-69
2022/12/31 05:43:29;;;;;;;45.83;9.88;;;;;;;;;;5085932;28;20063;-68
2022/12/31 05:45:56;;;;;;;37.88;8.75;;;;;;;;;;5084061;28;20093;-69
2022/12/31 05:48:24;;;;;;;32.78;7.43;;;;;;;;;;5088349;28;20055;-69
2022/12/31 05:50:51;;;;;;;25.05;6.25;;;;;;;;;;5080122;28;20052;-69
2022/12/31 05:53:20;;;;;;;21.35;3.88;;;;;;;;;;5077418;28;20051;-70
2022/12/31 05:55:47;;;;;;;10.05;2.22;;;;;;;;;;5077267;28;20059;-70
2022/12/31 05:58:15;;;;;;;14.40;2.50;;;;;;;;;;5080039;28;20763;-70
2022/12/31 06:00:43;;;;;;;17.20;2.30;;;;;;;;;;5076290;28;20070;-69
2022/12/31 06:03:10;;;;;;;14.77;2.60;;;;;;;;;;5056330;28;20055;-70
2022/12/31 06:05:39;;;;;;;11.32;2.10;;;;;;;;;;5065273;28;20056;-68
2022/12/31 06:08:07;;;;;;;17.38;2.88;;;;;;;;;;5059283;28;20063;-69
2022/12/31 06:10:35;;;;;;;24.67;3.55;;;;;;;;;;5075916;28;20044;-70
2022/12/31 06:13:03;;;;;;;19.30;3.85;;;;;;;;;;5081822;28;20063;-69
2022/12/31 06:15:30;;;;;;;18.00;4.32;;;;;;;;;;5060535;28;20067;-70
2022/12/31 06:17:57;;;;;;;22.23;5.78;;;;;;;;;;5081483;28;20393;-67
2022/12/31 06:20:24;;;;;;;28.95;8.73;;;;;;;;;;5079020;28;20067;-70
2022/12/31 06:22:52;;;;;;;41.35;10.50;;;;;;;;;;5079900;28;20135;-69
2022/12/31 06:25:19;;;;;;;36.15;9.90;;;;;;;;;;5078403;28;20424;-68
2022/12/31 06:27:48;;;;;;;48.50;11.45;;;;;;;;;;5079048;28;20052;-70
2022/12/31 06:30:15;;;;;;;36.33;12.98;;;;;;;;;;5061314;28;20052;-68
2022/12/31 06:32:42;;;;;;;41.20;14.80;;;;;;;;;;5060487;28;20592;-69
2022/12/31 06:35:10;;;;;;;40.28;14.85;;;;;;;;;;5078983;28;20056;-69
2022/12/31 06:37:37;;;;;;;33.80;14.50;;;;;;;;;;5082026;28;20048;-68
2022/12/31 06:40:05;;;;;;;33.80;12.32;;;;;;;;;;5060358;28;20059;-69
2022/12/31 06:42:32;;;;;;;30.50;11.80;;;;;;;;;;5083862;28;20063;-68
2022/12/31 06:45:01;;;;;;;25.35;10.70;;;;;;;;;;5065815;28;20053;-69
2022/12/31 06:47:28;;;;;;;27.38;9.32;;;;;;;;;;5086816;28;20052;-69
2022/12/31 06:49:55;;;;;;;26.00;7.72;;;;;;;;;;5082413;28;20204;-68
2022/12/31 06:52:22;;;;;;;29.70;9.07;;;;;;;;;;5078992;28;20090;-68
2022/12/31 06:54:50;;;;;;;26.90;7.95;;;;;;;;;;5060598;28;20052;-70
2022/12/31 06:57:17;;;;;;;25.40;8.95;;;;;;;;;;5083647;28;20498;-69
2022/12/31 06:59:45;;;;;;;38.88;9.85;;;;;;;;;;5078169;28;20053;-68
2022/12/31 07:02:22;;;;;;;20.73;8.35;;;;;;;;;;5056682;28;20036;-68
2022/12/31 07:04:57;;;;;;;29.00;8.55;;;;;;;;;;5079303;28;20055;-70
2022/12/31 07:07:26;;;;;;;33.08;8.38;;;;;;;;;;5085328;28;20059;-70
2022/12/31 07:09:57;;;;;;;21.38;7.68;;;;;;;;;;5084073;28;20127;-71
2022/12/31 07:12:31;;;;;;;21.95;7.72;;;;;;;;;;5084915;28;20048;-69
2022/12/31 07:15:00;;;;;;;22.48;8.60;;;;;;;;;;5080462;28;20467;-69
2022/12/31 07:17:34;;;;;;;23.98;8.10;;;;;;;;;;5080937;28;20078;-68
2022/12/31 07:20:04;;;;;;;19.55;7.25;;;;;;;;;;5082982;28;20067;-70
2022/12/31 07:22:31;;;;;;;18.52;6.82;;;;;;;;;;5084058;28;20044;-68
2022/12/31 07:24:59;;;;;;;22.20;8.70;;;;;;;;;;5079203;28;20044;-68
2022/12/31 07:27:34;;;;;;;23.23;9.40;;;;;;;;;;5079022;28;20075;-70
2022/12/31 07:30:04;;;;;;;41.75;11.57;;;;;;;;;;5082391;28;20052;-71
2022/12/31 07:32:38;;;;;;;28.80;11.15;;;;;;;;;;5083970;28;20052;-70
2022/12/31 07:35:10;;;;;;;35.25;12.82;;;;;;;;;;5084964;28;20059;-68
2022/12/31 07:37:43;;;;;;;26.83;12.05;;;;;;;;;;5083017;28;20458;-68
2022/12/31 07:40:14;;;;;;;31.23;12.82;;;;;;;;;;5079300;28;20383;-69
2022/12/31 07:42:45;;;;;;;31.50;13.63;;;;;;;;;;5079445;28;20068;-71
2022/12/31 07:45:15;;;;;;;52.25;14.85;;;;;;;;;;5083972;28;20497;-69
2022/12/31 07:47:44;;;;;;;32.42;12.90;;;;;;;;;;5079281;28;20048;-69
2022/12/31 07:50:14;;;;;;;25.88;11.85;;;;;;;;;;5084845;28;20690;-68
2022/12/31 07:52:42;;;;;;;30.88;11.48;;;;;;;;;;5077891;28;20510;-70
2022/12/31 07:55:10;;;;;;;30.90;11.70;;;;;;;;;;5085815;28;20088;-68
2022/12/31 07:57:39;;;;;;;38.33;12.52;;;;;;;;;;5085387;28;20343;-68
2022/12/31 08:00:09;;;;;;;29.52;11.38;;;;;;;;;;5079698;28;20052;-69
2022/12/31 08:02:50;;;;;;;29.17;11.25;;;;;;;;;;5080012;28;20044;-70
2022/12/31 08:05:20;;;;;;;22.40;10.93;;;;;;;;;;5082783;28;20051;-67
2022/12/31 08:07:51;;;;;;;23.25;10.75;;;;;;;;;;5085383;28;20044;-69
2022/12/31 08:10:20;;;;;;;20.55;10.30;;;;;;;;;;5084526;28;20059;-68
2022/12/31 08:12:49;;;;;;;18.40;9.60;;;;;;;;;;5083794;28;20040;-67
2022/12/31 08:15:18;;;;;;;19.20;10.55;;;;;;;;;;5078898;28;20083;-68
2022/12/31 08:17:45;;;;;;;19.75;10.88;;;;;;;;;;5078674;28;20135;-68
2022/12/31 08:20:14;;;;;;;26.92;12.52;;;;;;;;;;5082506;28;20060;-67
2022/12/31 08:22:53;;;;;;;22.65;12.43;;;;;;;;;;5086732;28;20128;-69
2022/12/31 08:25:24;;;;;;;25.45;13.35;;;;;;;;;;5078979;28;20054;-67
2022/12/31 08:27:56;;;;;;;24.92;14.40;;;;;;;;;;5074702;28;20055;-68
2022/12/31 08:30:24;;;;;;;24.85;13.68;;;;;;;;;;5075902;28;20070;-68
2022/12/31 08:32:55;;;;;;;27.98;13.95;;;;;;;;;;5076057;28;20052;-70
2022/12/31 08:35:31;;;;;;;21.05;12.57;;;;;;;;;;5074530;28;20064;-71
2022/12/31 08:38:03;;;;;;;20.40;13.02;;;;;;;;;;5074050;28;20213;-72
2022/12/31 08:40:34;;;;;;;22.85;13.75;;;;;;;;;;5076182;28;20071;-70
2022/12/31 08:43:06;;;;;;;22.25;13.73;;;;;;;;;;5073561;28;20063;-70
2022/12/31 08:45:36;;;;;;;20.80;12.52;;;;;;;;;;5074907;28;20049;-68
2022/12/31 08:48:05;;;;;;;25.25;14.27;;;;;;;;;;5075935;28;20135;-68
2022/12/31 08:50:33;;;;;;;26.13;14.35;;;;;;;;;;5052304;28;21270;-68
2022/12/31 08:53:02;;;;;;;30.58;14.90;;;;;;;;;;5057356;28;20562;-69
2022/12/31 08:55:30;;;;;;;27.52;14.68;;;;;;;;;;5076241;28;20060;-69
2022/12/31 08:58:04;;;;;;;28.50;14.90;;;;;;;;;;5075372;28;20052;-68
2022/12/31 09:00:32;;;;;;;24.08;12.27;;;;;;;;;;5055775;28;20069;-71
2022/12/31 09:03:07;;;;;;;30.55;17.20;;;;;;;;;;5076019;28;20047;-69
2022/12/31 09:05:39;;;;;;;32.55;16.00;;;;;;;;;;5073554;28;20055;-70
2022/12/31 09:08:13;;;;;;;26.52;11.43;;;;;;;;;;5075695;28;20078;-70
2022/12/31 09:10:44;;;;;;;19.08;9.00;;;;;;;;;;5074260;28;20056;-69
2022/12/31 09:13:16;;;;;;;20.42;8.23;;;;;;;;;;5074926;28;20056;-70
2022/12/31 09:15:45;;;;;;;20.75;7.88;;;;;;;;;;5074895;28;20109;-70
2022/12/31 09:18:13;;;;;;;18.25;7.10;;;;;;;;;;5074794;28;20475;-69
2022/12/31 09:20:41;;;;;;;15.73;7.07;;;;;;;;;;5072575;28;20057;-70
2022/12/31 09:23:08;;;;;;;21.75;7.75;;;;;;;;;;5079976;28;20208;-73
2022/12/31 09:25:42;;;;;;;18.45;7.40;;;;;;;;;;5078002;28;20043;-69
2022/12/31 09:28:16;;;;;;;18.92;7.32;;;;;;;;;;5078418;28;20141;-70
2022/12/31 09:30:49;;;;;;;13.73;4.43;;;;;;;;;;5074432;28;20058;-69
2022/12/31 09:33:32;;;;;;;15.05;3.55;;;;;;;;;;5073753;28;20064;-69
2022/12/31 09:36:02;;;;;;;12.52;2.70;;;;;;;;;;5074050;28;20088;-70
2022/12/31 09:38:31;;;;;;;12.70;1.70;;;;;;;;;;5079672;28;20087;-70
2022/12/31 09:41:13;;;;;;;13.10;2.67;;;;;;;;;;5078995;28;20486;-70
2022/12/31 09:44:04;;;;;;;13.25;2.15;;;;;;;;;;5069452;28;20080;-70
2022/12/31 09:46:55;;;;;;;15.25;2.00;;;;;;;;;;5078873;28;20071;-71
2022/12/31 09:49:37;;;;;;;14.18;1.98;;;;;;;;;;5061829;28;20056;-70
2022/12/31 09:52:09;;;;;;;13.30;1.52;;;;;;;;;;5076090;28;20062;-70
2022/12/31 09:54:51;;;;;;;17.40;1.75;;;;;;;;;;5077828;28;20055;-71
2022/12/31 09:57:36;;;;;;;13.70;1.70;;;;;;;;;;5078433;28;20051;-70
2022/12/31 10:00:05;;;;;;;17.63;1.83;;;;;;;;;;5074403;28;20047;-70
2022/12/31 10:02:51;;;;;;;16.13;2.33;;;;;;;;;;5077947;28;20102;-70
2022/12/31 10:05:29;;;;;;;15.88;1.83;;;;;;;;;;5082431;28;20052;-70
2022/12/31 10:08:00;;;;;;;12.43;1.77;;;;;;;;;;5072904;28;20052;-70
2022/12/31 10:10:30;;;;;;;15.30;2.35;;;;;;;;;;5076097;28;20467;-70
2022/12/31 10:13:03;;;;;;;18.25;2.50;;;;;;;;;;5077793;28;20048;-71
2022/12/31 10:15:38;;;;;;;24.40;2.77;;;;;;;;;;5077648;28;20056;-72
2022/12/31 10:18:12;;;;;;;14.30;2.22;;;;;;;;;;5074511;28;20055;-71
2022/12/31 10:20:48;;;;;;;17.77;2.65;;;;;;;;;;5077187;28;20080;-70
2022/12/31 10:23:25;;;;;;;24.02;2.72;;;;;;;;;;5082560;28;20044;-70
2022/12/31 10:26:06;;;;;;;18.13;2.45;;;;;;;;;;5075473;28;20049;-70
2022/12/31 10:28:39;;;;;;;23.25;3.00;;;;;;;;;;5075802;28;20049;-71
2022/12/31 10:31:13;;;;;;;28.80;3.65;;;;;;;;;;5079009;28;20063;-70
2022/12/31 10:33:43;;;;;;;21.77;2.97;;;;;;;;;;5081205;28;20047;-71
2022/12/31 10:36:16;;;;;;;22.60;2.70;;;;;;;;;;5057519;28;20056;-70
2022/12/31 10:38:48;;;;;;;25.47;3.00;;;;;;;;;;5073961;28;20044;-70
2022/12/31 10:41:33;;;;;;;30.17;3.92;;;;;;;;;;5078931;28;20048;-71
2022/12/31 10:44:21;;;;;;;17.98;2.55;;;;;;;;;;5041218;28;20071;-72
2022/12/31 10:47:03;;;;;;;17.40;3.42;;;;;;;;;;5045154;28;20736;-71
2022/12/31 10:49:48;;;;;;;27.30;3.03;;;;;;;;;;5043058;28;20055;-71
2022/12/31 10:52:36;;;;;;;25.13;2.78;;;;;;;;;;5062491;28;20044;-70
2022/12/31 10:55:33;;;;;;;20.23;2.47;;;;;;;;;;5028697;28;20049;-69
2022/12/31 10:58:15;;;;;;;22.75;2.90;;;;;;;;;;5086000;28;20071;-71
2022/12/31 11:00:47;;;;;;;18.90;3.15;;;;;;;;;;5081887;28;20397;-70
2022/12/31 11:03:39;;;;;;;28.10;3.42;;;;;;;;;;5085087;28;20040;-71
2022/12/31 11:06:26;;;;;;;27.50;3.38;;;;;;;;;;5086416;28;20043;-68
2022/12/31 11:09:10;;;;;;;27.02;3.33;;;;;;;;;;5080248;28;20105;-72
2022/12/31 11:11:43;;;;;;;27.88;3.03;;;;;;;;;;5084278;28;20849;-71
2022/12/31 11:14:29;;;;;;;23.05;3.25;;;;;;;;;;5087738;28;20040;-71
2022/12/31 11:17:01;;;;;;;23.63;3.88;;;;;;;;;;5080971;28;20044;-70
2022/12/31 11:19:34;;;;;;;22.48;3.25;;;;;;;;;;5086865;28;20048;-71
2022/12/31 11:22:12;;;;;;;28.35;2.90;;;;;;;;;;5086470;28;20052;-70
2022/12/31 11:24:46;;;;;;;27.77;4.00;;;;;;;;;;5082620;28;20055;-71
2022/12/31 11:27:21;;;;;;;24.95;3.33;;;;;;;;;;5084535;28;20044;-71
2022/12/31 11:30:02;;;;;;;26.17;3.53;;;;;;;;;;5065545;28;20048;-70
2022/12/31 11:32:36;;;;;;;30.80;4.00;;;;;;;;;;5078070;28;20147;-70
2022/12/31 11:35:08;;;;;;;28.15;3.45;;;;;;;;;;5078580;28;20051;-71
2022/12/31 11:37:42;;;;;;;16.38;3.28;;;;;;;;;;5078422;28;20064;-72
2022/12/31 11:40:20;;;;;;;21.55;3.15;;;;;;;;;;5081063;28;20052;-72
2022/12/31 11:42:52;;;;;;;22.27;3.05;;;;;;;;;;5078234;28;20090;-72
2022/12/31 11:45:27;;;;;;;29.07;3.47;;;;;;;;;;5086055;28;20051;-71
2022/12/31 11:47:59;;;;;;;35.85;3.65;;;;;;;;;;5082322;28;20040;-70
2022/12/31 11:50:29;;;;;;;24.13;3.53;;;;;;;;;;5087407;28;20052;-71
2022/12/31 11:53:02;;;;;;;24.45;2.92;;;;;;;;;;5081406;28;20117;-69
2022/12/31 11:55:50;;;;;;;26.10;3.63;;;;;;;;;;5086577;28;20055;-71
2022/12/31 11:58:20;;;;;;;27.33;3.50;;;;;;;;;;5079675;28;20052;-72
2022/12/31 12:00:54;;;;;;;23.88;2.90;;;;;;;;;;5086163;28;20052;-70
2022/12/31 12:03:22;;;;;;;20.50;2.70;;;;;;;;;;5085154;28;20360;-70
2022/12/31 12:05:49;;;;;;;26.38;4.55;;;;;;;;;;5086490;28;20056;-71
2022/12/31 12:08:16;;;;;;;29.92;3.63;;;;;;;;;;5088464;28;20048;-70
2022/12/31 12:10:45;;;;;;;19.25;3.20;;;;;;;;;;5081324;28;20055;-71
2022/12/31 12:13:15;;;;;;;30.08;3.03;;;;;;;;;;5081355;28;20063;-71
2022/12/31 12:15:46;;;;;;;20.42;2.92;;;;;;;;;;5078192;28;20055;-70
2022/12/31 12:18:20;;;;;;;21.95;2.85;;;;;;;;;;5080352;28;20056;-71
2022/12/31 12:20:47;;;;;;;31.35;4.22;;;;;;;;;;5084984;28;20048;-69
2022/12/31 12:23:16;;;;;;;28.88;3.53;;;;;;;;;;5081546;28;20044;-70
2022/12/31 12:25:45;;;;;;;25.42;3.58;;;;;;;;;;5082690;28;20049;-70
2022/12/31 12:28:19;;;;;;;28.25;3.70;;;;;;;;;;5084640;28;20056;-70
2022/12/31 12:30:53;;;;;;;27.08;3.75;;;;;;;;;;5086805;28;20062;-69
2022/12/31 12:33:21;;;;;;;24.02;3.45;;;;;;;;;;5080707;28;20052;-69
2022/12/31 12:35:48;;;;;;;25.15;3.80;;;;;;;;;;5070833;28;20056;-70
2022/12/31 12:38:16;;;;;;;29.33;3.75;;;;;;;;;;5078096;28;20050;-71
2022/12/31 12:40:53;;;;;;;24.92;3.83;;;;;;;;;;5079437;28;20537;-71
2022/12/31 12:43:25;;;;;;;34.28;4.28;;;;;;;;;;5078815;28;20068;-69
2022/12/31 12:45:56;;;;;;;30.92;3.85;;;;;;;;;;5081970;28;20052;-70
2022/12/31 12:48:30;;;;;;;25.73;3.83;;;;;;;;;;5082313;28;20052;-70
2022/12/31 12:50:58;;;;;;;25.67;3.50;;;;;;;;;;5060203;28;20410;-69
2022/12/31 12:53:40;;;;;;;32.60;4.32;;;;;;;;;;5078057;28;20056;-69
2022/12/31 12:56:11;;;;;;;27.88;3.50;;;;;;;;;;5075294;28;20052;-71
2022/12/31 12:58:45;;;;;;;37.15;4.45;;;;;;;;;;5061603;28;20064;-69
2022/12/31 13:01:18;;;;;;;33.38;5.30;;;;;;;;;;5079108;28;20405;-71
2022/12/31 13:04:06;;;;;;;31.13;4.05;;;;;;;;;;5077042;28;20080;-70
2022/12/31 13:06:37;;;;;;;22.30;3.20;;;;;;;;;;5080694;28;20051;-70
2022/12/31 13:09:18;;;;;;;28.42;4.38;;;;;;;;;;5081317;28;20405;-70
2022/12/31 13:11:49;;;;;;;30.50;3.97;;;;;;;;;;5084076;28;20052;-70
2022/12/31 13:14:22;;;;;;;26.30;4.05;;;;;;;;;;5080435;28;20048;-70
2022/12/31 13:16:56;;;;;;;30.15;3.28;;;;;;;;;;5084632;28;20130;-70
2022/12/31 13:19:35;;;;;;;24.92;4.80;;;;;;;;;;5078598;28;20379;-71
2022/12/31 13:22:05;;;;;;;31.42;3.40;;;;;;;;;;5081329;28;20052;-71
2022/12/31 13:24:41;;;;;;;29.63;4.25;;;;;;;;;;5080293;28;20121;-71
2022/12/31 13:27:11;;;;;;;25.83;3.88;;;;;;;;;;5080318;28;20048;-71
2022/12/31 13:29:39;;;;;;;29.60;3.83;;;;;;;;;;5081219;28;20196;-72
2022/12/31 13:32:10;;;;;;;32.25;4.18;;;;;;;;;;5058779;28;20058;-71
2022/12/31 13:34:40;;;;;;;34.00;8.43;;;;;;;;;;5079342;28;20055;-70
2022/12/31 13:37:14;;;;;;;24.27;3.70;;;;;;;;;;5066344;28;20504;-71
2022/12/31 13:39:42;;;;;;;26.30;4.03;;;;;;;;;;5086901;28;20052;-70
2022/12/31 13:42:10;;;;;;;28.38;4.18;;;;;;;;;;5084248;28;20060;-70
2022/12/31 13:44:40;;;;;;;25.50;3.47;;;;;;;;;;5082297;28;20554;-71
2022/12/31 13:47:12;;;;;;;27.10;4.45;;;;;;;;;;5080537;28;20051;-71
2022/12/31 13:49:43;;;;;;;22.75;3.03;;;;;;;;;;5062571;28;20121;-70
2022/12/31 13:52:19;;;;;;;22.55;3.92;;;;;;;;;;5063990;28;20052;-69
2022/12/31 13:54:53;;;;;;;20.50;2.97;;;;;;;;;;5083030;28;20055;-71
2022/12/31 13:57:24;;;;;;;25.45;3.05;;;;;;;;;;5081918;28;20044;-72
2022/12/31 13:59:53;;;;;;;20.33;2.72;;;;;;;;;;5082309;28;20070;-71
2022/12/31 14:02:29;;;;;;;16.90;2.47;;;;;;;;;;5077547;28;20055;-70
2022/12/31 14:04:59;;;;;;;19.27;1.90;;;;;;;;;;5084588;28;20044;-71
2022/12/31 14:07:29;;;;;;;11.48;1.20;;;;;;;;;;5079233;28;20113;-71
2022/12/31 14:09:56;;;;;;;10.90;1.88;;;;;;;;;;5082296;28;20139;-71
2022/12/31 14:12:30;;;;;;;12.70;2.10;;;;;;;;;;5059722;28;20079;-71
2022/12/31 14:15:03;;;;;;;25.10;2.58;;;;;;;;;;5065843;28;20044;-71
2022/12/31 14:17:37;;;;;;;19.47;2.37;;;;;;;;;;5080080;28;20044;-70
2022/12/31 14:20:11;;;;;;;20.33;3.25;;;;;;;;;;5081475;28;20056;-71
2022/12/31 14:22:44;;;;;;;23.17;2.88;;;;;;;;;;5082352;28;20371;-71
2022/12/31 14:25:18;;;;;;;31.80;12.77;;;;;;;;;;5083299;28;20048;-71
2022/12/31 14:27:46;;;;;;;13.88;2.72;;;;;;;;;;5080627;28;21048;-71
2022/12/31 14:30:16;;;;;;;13.40;1.83;;;;;;;;;;5079307;28;20044;-71
2022/12/31 14:33:01;;;;;;;15.38;2.67;;;;;;;;;;5083336;28;20052;-71
2022/12/31 14:35:35;;;;;;;14.02;2.40;;;;;;;;;;5065770;28;20589;-70
2022/12/31 14:38:08;;;;;;;16.65;2.97;;;;;;;;;;5075884;28;20048;-72
2022/12/31 14:40:42;;;;;;;18.00;2.63;;;;;;;;;;5081685;28;20056;-72
2022/12/31 14:43:18;;;;;;;8.13;1.40;;;;;;;;;;5062003;28;20067;-73
2022/12/31 14:45:52;;;;;;;14.82;1.70;;;;;;;;;;5056517;28;20087;-73
2022/12/31 14:48:25;;;;;;;12.85;1.80;;;;;;;;;;5064876;28;20142;-73
2022/12/31 14:50:54;;;;;;;9.97;1.30;;;;;;;;;;5065332;28;20056;-71
2022/12/31 14:53:23;;;;;;;15.02;2.90;;;;;;;;;;5071760;28;20139;-72
2022/12/31 14:55:57;;;;;;;10.75;1.70;;;;;;;;;;5077881;28;20052;-72
2022/12/31 14:58:30;;;;;;;9.25;1.27;;;;;;;;;;5078932;28;20052;-71
2022/12/31 15:00:59;;;;;;;8.52;1.83;;;;;;;;;;5079697;28;20044;-72
2022/12/31 15:03:33;;;;;;;7.53;1.40;;;;;;;;;;5079487;28;20044;-72